Lively, Virginia
Current Conditions -  °F | °C
As of 6:35 PM on Saturday 22 Nov 2014 (Local Time) from KW75 Reporting Station
Clear Clear  
Wind Chill: 31°   Ceiling: Unl
Heat Index: 38°   Visibility: 10mi
Dew Point: 19°   Wind: 9mph
Humidity: 48%   Direction: 200°SSW
Pressure: 30.36"   Gusts: NA
Location:  37.78°N, 76.51°W
Report Text: KW75 222335Z AUTO 20008KT 10SM CLR 03/M07 A3036 RMK AO1 T00321070
Loading
Personal Weather Stations






























Interactive Weather Map New forecast layout! Learn more

10-Day Weather Forecast

Advertisements
Track Severe Weather on mobile